createdAt,value
2022-07-26T00:01:48.745Z,25.45
2022-07-26T00:04:17.714Z,25.45
2022-07-26T00:06:45.512Z,25.42
2022-07-26T00:09:13.211Z,25.40
2022-07-26T00:11:41.031Z,25.37
2022-07-26T00:14:10.239Z,25.36
2022-07-26T00:16:39.303Z,25.36
2022-07-26T00:19:08.520Z,25.37
2022-07-26T00:21:40.615Z,25.39
2022-07-26T00:24:09.652Z,25.36
2022-07-26T00:26:37.510Z,25.37
2022-07-26T00:29:06.143Z,25.38
2022-07-26T00:31:34.376Z,25.39
2022-07-26T00:34:01.925Z,25.39
2022-07-26T00:36:29.771Z,25.39
2022-07-26T00:38:58.621Z,25.41
2022-07-26T00:41:26.224Z,25.42
2022-07-26T00:43:58.831Z,25.43
2022-07-26T00:46:26.855Z,25.43
2022-07-26T00:48:54.992Z,25.40
2022-07-26T00:51:23.094Z,25.38
2022-07-26T00:53:51.313Z,25.38
2022-07-26T00:56:20.196Z,25.40
2022-07-26T00:58:47.717Z,25.40
2022-07-26T01:01:15.330Z,25.42
2022-07-26T01:03:43.007Z,25.40
2022-07-26T01:06:10.733Z,25.39
2022-07-26T01:08:38.894Z,25.37
2022-07-26T01:11:06.652Z,25.34
2022-07-26T01:13:35.806Z,25.31
2022-07-26T01:16:04.201Z,25.27
2022-07-26T01:18:32.013Z,25.27
2022-07-26T01:21:09.000Z,25.25
2022-07-26T01:23:43.604Z,25.24
2022-07-26T01:26:11.306Z,25.22
2022-07-26T01:28:39.677Z,25.21
2022-07-26T01:31:08.178Z,25.18
2022-07-26T01:33:36.064Z,25.17
2022-07-26T01:36:03.752Z,25.17
2022-07-26T01:38:31.282Z,25.16
2022-07-26T01:41:00.197Z,25.14
2022-07-26T01:43:27.935Z,25.14
2022-07-26T01:45:55.614Z,25.13
2022-07-26T01:48:23.286Z,25.09
2022-07-26T01:50:50.908Z,25.08
2022-07-26T01:53:18.479Z,25.07
2022-07-26T01:55:46.000Z,25.07
2022-07-26T01:58:16.085Z,25.05
2022-07-26T02:00:43.601Z,25.01
2022-07-26T02:03:11.187Z,24.96
2022-07-26T02:05:38.776Z,24.93
2022-07-26T02:08:06.334Z,24.90
2022-07-26T02:10:48.736Z,24.87
2022-07-26T02:13:18.342Z,24.83
2022-07-26T02:15:45.941Z,24.75
2022-07-26T02:18:14.057Z,24.70
2022-07-26T02:20:41.559Z,24.63
2022-07-26T02:23:09.058Z,24.59
2022-07-26T02:25:36.694Z,24.55
2022-07-26T02:28:04.265Z,24.49
2022-07-26T02:30:33.227Z,24.40
2022-07-26T02:33:01.296Z,24.29
2022-07-26T02:35:29.622Z,24.14
2022-07-26T02:38:01.572Z,24.05
2022-07-26T02:40:29.312Z,23.99
2022-07-26T02:42:56.830Z,23.90
2022-07-26T02:45:24.430Z,23.78
2022-07-26T02:47:55.558Z,23.71
2022-07-26T02:50:27.892Z,23.68
2022-07-26T02:52:55.566Z,23.64
2022-07-26T02:55:26.110Z,23.63
2022-07-26T02:57:53.813Z,23.60
2022-07-26T03:00:23.460Z,23.57
2022-07-26T03:02:51.378Z,23.53
2022-07-26T03:05:21.501Z,23.48
2022-07-26T03:07:49.544Z,23.47
2022-07-26T03:10:17.286Z,23.49
2022-07-26T03:12:44.835Z,23.50
2022-07-26T03:15:12.696Z,23.51
2022-07-26T03:17:40.422Z,23.49
2022-07-26T03:20:09.148Z,23.52
2022-07-26T03:22:38.014Z,23.55
2022-07-26T03:25:06.542Z,23.55
2022-07-26T03:27:34.240Z,23.55
2022-07-26T07:27:42.227Z,24.06
2022-07-26T09:56:15.982Z,26.16
2022-07-26T09:58:44.030Z,26.26
2022-07-26T10:01:11.539Z,26.37
2022-07-26T10:03:39.119Z,26.44
2022-07-26T10:06:07.805Z,26.48
2022-07-26T10:45:28.002Z,26.93
2022-07-26T10:48:30.569Z,26.95
2022-07-26T10:51:27.918Z,26.89
